createdAt,value
2022-12-01T00:00:57.075Z,4.32
2022-12-01T00:06:01.598Z,4.26
2022-12-01T00:11:06.959Z,4.32
2022-12-01T00:16:13.963Z,4.29
2022-12-01T00:21:19.234Z,4.37
2022-12-01T00:26:24.139Z,4.34
2022-12-01T00:31:29.761Z,4.35
2022-12-01T00:36:34.171Z,4.28
2022-12-01T00:41:38.151Z,4.22
2022-12-01T00:46:43.765Z,4.12
2022-12-01T00:51:50.924Z,4.23
2022-12-01T00:56:54.958Z,4.32
2022-12-01T01:02:00.409Z,4.28
2022-12-01T01:07:04.735Z,4.11
2022-12-01T01:12:08.843Z,4.11
2022-12-01T01:17:14.245Z,4.20
2022-12-01T01:22:18.338Z,4.09
2022-12-01T01:27:22.473Z,4.12
2022-12-01T01:32:30.123Z,4.59
2022-12-01T01:37:34.165Z,4.47
2022-12-01T01:42:38.156Z,4.47
2022-12-01T01:47:43.727Z,4.35
2022-12-01T01:52:52.928Z,4.07
2022-12-01T01:57:57.291Z,4.19
2022-12-01T02:03:03.657Z,3.91
2022-12-01T02:08:12.416Z,3.65
2022-12-01T02:13:25.404Z,3.87
2022-12-01T02:18:39.083Z,3.90
2022-12-01T02:24:18.490Z,3.93
2022-12-01T02:30:10.855Z,3.77
2022-12-01T02:35:22.160Z,3.72
2022-12-01T02:40:29.892Z,3.77
2022-12-01T02:45:42.097Z,3.76
2022-12-01T02:50:49.094Z,3.71
2022-12-01T02:55:55.598Z,3.72
2022-12-01T03:01:18.143Z,3.75
2022-12-01T03:06:34.775Z,3.66
2022-12-01T03:11:46.208Z,3.30
2022-12-01T03:16:53.584Z,3.44
2022-12-01T03:22:03.564Z,3.21
2022-12-01T03:27:09.973Z,3.46
2022-12-01T03:32:20.175Z,3.59
2022-12-01T03:37:32.033Z,3.36
2022-12-01T03:42:40.243Z,3.60
2022-12-01T03:47:45.364Z,3.65
2022-12-01T03:53:01.871Z,3.73
2022-12-01T03:58:10.673Z,3.68
2022-12-01T04:03:19.754Z,3.52
2022-12-01T04:08:26.772Z,3.51
2022-12-01T04:13:30.818Z,3.29
2022-12-01T04:18:34.852Z,3.56
2022-12-01T04:23:57.864Z,3.26
2022-12-01T04:29:02.418Z,3.01
2022-12-01T04:34:06.550Z,2.97
2022-12-01T04:39:11.940Z,2.85
2022-12-01T04:44:16.104Z,2.96
2022-12-01T04:49:20.460Z,3.21
2022-12-01T04:54:26.674Z,2.97
2022-12-01T04:59:30.736Z,3.14
2022-12-01T05:04:38.816Z,3.31
2022-12-01T05:09:44.445Z,3.27
2022-12-01T05:14:48.689Z,3.16
2022-12-01T05:20:09.830Z,3.41
2022-12-01T05:25:15.335Z,3.42
2022-12-01T05:30:22.019Z,3.53
2022-12-01T05:35:28.452Z,3.33
2022-12-01T05:40:34.352Z,2.97
2022-12-01T05:45:38.848Z,2.84
2022-12-01T05:50:42.957Z,2.85
2022-12-01T05:55:58.018Z,2.99
2022-12-01T06:01:02.869Z,3.16
2022-12-01T06:06:07.338Z,3.25
2022-12-01T06:11:13.103Z,3.36
2022-12-01T06:16:17.259Z,3.14
2022-12-01T06:21:21.309Z,2.95
2022-12-01T06:26:26.816Z,2.89
2022-12-01T06:31:30.926Z,2.83
2022-12-01T06:36:35.086Z,3.10
2022-12-01T06:41:40.656Z,3.22
2022-12-01T06:46:44.917Z,3.40
2022-12-01T06:51:50.074Z,3.43
2022-12-01T06:56:55.487Z,3.34
2022-12-01T07:01:59.820Z,3.06
2022-12-01T07:07:05.736Z,3.24
2022-12-01T07:12:11.403Z,3.20
2022-12-01T07:17:15.469Z,3.44
2022-12-01T07:22:20.470Z,3.35
2022-12-01T07:27:25.972Z,3.36
2022-12-01T07:32:30.000Z,3.23
2022-12-01T07:37:33.991Z,2.97
2022-12-01T07:42:42.363Z,3.30
2022-12-01T07:47:49.038Z,3.04
2022-12-01T07:52:53.117Z,3.22
2022-12-01T07:58:00.919Z,2.84
2022-12-01T08:03:05.613Z,2.97
2022-12-01T08:08:09.762Z,3.19
2022-12-01T08:13:17.502Z,3.53
2022-12-01T08:18:21.784Z,3.42
2022-12-01T08:23:26.068Z,3.69
2022-12-01T08:28:32.100Z,3.47
2022-12-01T08:33:36.089Z,3.57
2022-12-01T08:38:40.090Z,3.44
2022-12-01T08:44:02.118Z,3.22
2022-12-01T08:49:07.272Z,3.38
2022-12-01T08:54:13.042Z,3.57
2022-12-01T08:59:18.472Z,3.62
2022-12-01T09:04:24.232Z,3.63
2022-12-01T09:09:30.029Z,3.50
2022-12-01T09:14:39.285Z,3.40
2022-12-01T09:19:43.516Z,3.28
2022-12-01T09:24:47.735Z,3.30
2022-12-01T09:29:53.092Z,3.47
2022-12-01T09:34:57.097Z,3.55
2022-12-01T09:40:01.156Z,3.53
2022-12-01T09:45:08.458Z,3.20
2022-12-01T09:50:13.822Z,3.14
2022-12-01T09:55:20.830Z,3.24
2022-12-01T10:00:28.028Z,3.63
2022-12-01T10:06:18.110Z,4.14
2022-12-01T10:11:14.123Z,4.25
2022-12-01T10:16:26.634Z,4.46
2022-12-01T10:21:42.238Z,4.34
2022-12-01T10:26:53.008Z,4.25
2022-12-01T10:31:59.734Z,4.42
2022-12-01T10:37:04.103Z,4.20
2022-12-01T10:42:15.325Z,3.96
2022-12-01T10:47:23.281Z,4.14
2022-12-01T10:52:37.353Z,3.73
2022-12-01T10:57:46.801Z,3.86
2022-12-01T11:02:52.504Z,3.53
2022-12-01T11:07:57.309Z,3.56
2022-12-01T11:13:07.890Z,3.76
2022-12-01T11:18:24.577Z,4.29
2022-12-01T11:23:29.863Z,4.25
2022-12-01T11:28:35.540Z,4.13
2022-12-01T11:33:48.237Z,3.93
2022-12-01T11:38:57.649Z,3.92
2022-12-01T11:44:06.293Z,3.74
2022-12-01T11:49:20.412Z,3.26
2022-12-01T11:54:27.037Z,3.23
2022-12-01T11:59:32.491Z,3.07
2022-12-01T12:04:57.270Z,3.04
2022-12-01T12:10:15.850Z,2.86
2022-12-01T12:15:30.159Z,3.05
2022-12-01T12:20:50.210Z,2.75
2022-12-01T12:26:02.965Z,2.96
2022-12-01T12:31:15.970Z,2.88
2022-12-01T12:36:31.780Z,2.94
2022-12-01T12:41:41.551Z,2.60
2022-12-01T12:46:54.322Z,2.95
2022-12-01T12:52:08.712Z,3.38
2022-12-01T12:57:22.109Z,3.14
2022-12-01T13:02:33.272Z,2.88
2022-12-01T13:07:44.915Z,2.64
2022-12-01T13:12:57.771Z,2.79
2022-12-01T13:18:13.524Z,2.94
2022-12-01T13:23:22.267Z,2.64
2022-12-01T13:28:30.266Z,2.99
2022-12-01T13:33:36.675Z,2.73
2022-12-01T13:38:42.147Z,2.77
2022-12-01T13:43:55.352Z,3.02
2022-12-01T13:49:02.714Z,2.40
2022-12-01T13:54:31.482Z,2.55
2022-12-01T14:00:03.178Z,2.27
2022-12-01T14:05:44.563Z,1.95
2022-12-01T14:10:58.063Z,2.39
2022-12-01T14:16:04.653Z,2.38
2022-12-01T14:21:11.278Z,2.11
2022-12-01T14:26:19.631Z,2.22
2022-12-01T14:31:24.302Z,2.24
2022-12-01T14:36:40.748Z,2.56
2022-12-01T14:41:49.913Z,2.57
2022-12-01T14:47:03.066Z,2.59
2022-12-01T14:52:16.847Z,2.63
2022-12-01T14:57:26.912Z,2.62
2022-12-01T15:02:31.201Z,2.36
2022-12-01T15:07:38.840Z,2.38
2022-12-01T15:12:44.369Z,2.15
2022-12-01T15:17:48.763Z,2.22
2022-12-01T15:22:53.101Z,2.36
2022-12-01T15:28:13.061Z,2.29
2022-12-01T15:33:26.957Z,2.23
2022-12-01T15:38:34.700Z,2.15
2022-12-01T15:43:41.419Z,2.08
2022-12-01T15:48:46.523Z,2.07
2022-12-01T15:53:53.872Z,1.87
2022-12-01T15:59:01.783Z,1.99
2022-12-01T16:04:08.629Z,1.92
2022-12-01T16:09:22.813Z,2.06
2022-12-01T16:14:28.479Z,1.86
2022-12-01T16:19:33.852Z,1.88
2022-12-01T16:24:44.107Z,2.09
2022-12-01T16:29:52.700Z,2.11
2022-12-01T16:34:56.829Z,1.89
2022-12-01T16:40:01.305Z,1.98
2022-12-01T16:45:08.132Z,1.89
2022-12-01T16:50:15.021Z,1.90
2022-12-01T16:55:35.996Z,1.70
2022-12-01T17:00:41.455Z,1.92
2022-12-01T17:05:48.084Z,2.12
2022-12-01T17:10:53.639Z,1.87
2022-12-01T17:15:59.262Z,1.65
2022-12-01T17:21:05.181Z,1.45
2022-12-01T17:26:11.996Z,1.61
2022-12-01T17:31:17.886Z,1.50
2022-12-01T17:36:22.139Z,1.77
2022-12-01T17:41:32.293Z,1.53
2022-12-01T17:46:38.674Z,1.54
2022-12-01T17:51:43.037Z,1.66
2022-12-01T17:56:47.015Z,1.48
2022-12-01T18:01:52.481Z,1.44
2022-12-01T18:06:56.544Z,1.48
2022-12-01T18:12:00.838Z,1.57
2022-12-01T18:17:08.657Z,1.72
2022-12-01T18:22:15.823Z,1.92
2022-12-01T18:27:19.926Z,1.70
2022-12-01T18:32:27.536Z,2.00
2022-12-01T18:37:31.813Z,2.04
2022-12-01T18:42:35.896Z,1.82
2022-12-01T18:47:41.492Z,1.82
2022-12-01T18:52:45.579Z,2.02
2022-12-01T18:57:49.621Z,1.99
2022-12-01T19:02:55.390Z,2.01
2022-12-01T19:07:59.892Z,1.97
2022-12-01T19:13:04.279Z,1.82
2022-12-01T19:18:10.372Z,1.76
2022-12-01T19:23:14.716Z,1.71
2022-12-01T19:28:19.245Z,1.81
2022-12-01T19:33:25.192Z,1.86
2022-12-01T19:38:29.907Z,1.98
2022-12-01T19:43:35.380Z,1.63
2022-12-01T19:48:41.439Z,1.58
2022-12-01T19:53:46.215Z,1.49
2022-12-01T19:58:50.855Z,1.65
2022-12-01T20:03:56.455Z,1.74
2022-12-01T20:09:02.823Z,1.76
2022-12-01T20:14:08.265Z,1.83
2022-12-01T20:19:16.077Z,1.72
2022-12-01T20:24:21.585Z,1.69
2022-12-01T20:29:27.880Z,1.71
2022-12-01T20:34:36.081Z,1.69
2022-12-01T20:39:41.556Z,1.72
2022-12-01T20:44:46.525Z,1.77
2022-12-01T20:49:56.931Z,1.80
2022-12-01T20:55:02.680Z,1.67
2022-12-01T21:00:08.405Z,1.69
2022-12-01T21:05:13.975Z,1.66
2022-12-01T21:10:20.169Z,1.76
2022-12-01T21:15:28.502Z,1.60
2022-12-01T21:20:36.784Z,1.67
2022-12-01T21:25:41.934Z,1.85
2022-12-01T21:30:46.854Z,1.78
2022-12-01T21:35:53.179Z,1.65
2022-12-01T21:40:57.252Z,1.54
2022-12-01T21:46:12.456Z,1.78
2022-12-01T21:51:21.252Z,1.58
2022-12-01T21:56:27.063Z,1.21
2022-12-01T22:01:33.039Z,1.24
2022-12-01T22:06:40.967Z,1.43
2022-12-01T22:11:48.724Z,1.57
2022-12-01T22:16:57.611Z,1.63
2022-12-01T22:22:15.890Z,1.63
2022-12-01T22:27:28.124Z,1.63
2022-12-01T22:32:44.700Z,1.75
2022-12-01T22:37:51.775Z,1.47
2022-12-01T22:42:56.143Z,1.60
2022-12-01T22:48:03.193Z,1.59
2022-12-01T22:53:16.045Z,1.48
2022-12-01T22:58:25.308Z,1.60
2022-12-01T23:03:31.688Z,1.47
2022-12-01T23:08:37.241Z,1.54
2022-12-01T23:13:41.216Z,1.32
2022-12-01T23:18:45.249Z,1.47
2022-12-01T23:23:53.088Z,0.87
2022-12-01T23:28:58.958Z,1.09
2022-12-01T23:34:02.974Z,1.30
2022-12-01T23:39:14.961Z,1.48
2022-12-01T23:44:22.322Z,1.34
2022-12-01T23:49:29.056Z,1.50
2022-12-01T23:54:35.972Z,1.33
2022-12-01T23:59:40.138Z,1.36
